Time;durP1;ratioP1;P1;durP2;ratioP2;P2;SDS_P1;SDS_P2;PMS_P1;PMS_P2;Temp;Humidity;BMP_temperature;BMP_pressure;BME280_temperature;BME280_humidity;BME280_pressure;Samples;Min_cycle;Max_cycle;Signal;HPM_P1;HPM_P2
2023/08/10 00:02:18;;;;;;;4.82;1.83;;;14.40;99.90;;;;;;5059604;28;20060;-82
2023/08/10 00:04:44;;;;;;;4.80;1.70;;;14.70;99.90;;;;;;5059992;28;20094;-82
2023/08/10 00:07:10;;;;;;;5.28;1.80;;;14.30;99.90;;;;;;5059117;28;20045;-82
2023/08/10 00:09:36;;;;;;;7.43;2.00;;;14.30;99.90;;;;;;5063803;28;20123;-82
2023/08/10 00:12:01;;;;;;;6.10;1.90;;;14.30;99.90;;;;;;5072348;28;20029;-82
2023/08/10 00:14:27;;;;;;;4.15;1.90;;;14.30;99.90;;;;;;5068271;28;20131;-82
2023/08/10 00:16:53;;;;;;;6.93;1.77;;;14.50;99.90;;;;;;5059890;28;20037;-82
2023/08/10 00:19:18;;;;;;;4.25;1.60;;;14.30;99.90;;;;;;5061319;28;20040;-82
2023/08/10 00:21:44;;;;;;;7.70;1.45;;;14.30;99.90;;;;;;5066106;28;20101;-82
2023/08/10 00:24:10;;;;;;;8.60;2.10;;;14.30;99.90;;;;;;5065726;28;20056;-82
2023/08/10 00:26:35;;;;;;;5.22;1.60;;;14.70;99.90;;;;;;5063628;28;20041;-82
2023/08/10 00:29:01;;;;;;;5.13;1.70;;;14.20;99.90;;;;;;5062336;28;20044;-82
2023/08/10 00:31:27;;;;;;;5.85;1.67;;;14.20;99.90;;;;;;5064794;28;20072;-82
2023/08/10 00:33:53;;;;;;;5.03;1.70;;;14.10;99.90;;;;;;5066662;28;20477;-82
2023/08/10 00:36:19;;;;;;;3.70;1.48;;;14.10;99.90;;;;;;5065601;28;20053;-82
2023/08/10 00:38:44;;;;;;;3.58;1.80;;;15.00;99.90;;;;;;5061507;28;20374;-82
2023/08/10 00:41:10;;;;;;;6.97;1.63;;;14.10;99.90;;;;;;5063042;28;20092;-82
2023/08/10 00:43:35;;;;;;;5.95;2.20;;;14.10;99.90;;;;;;5064836;28;20049;-82
2023/08/10 00:46:02;;;;;;;5.50;1.73;;;14.10;99.90;;;;;;5066356;28;20036;-82
2023/08/10 00:48:28;;;;;;;3.95;1.80;;;14.30;99.90;;;;;;5065272;28;20052;-81
2023/08/10 00:50:54;;;;;;;6.28;1.80;;;14.00;99.90;;;;;;5062112;28;20033;-81
2023/08/10 00:53:20;;;;;;;5.40;1.77;;;14.00;99.90;;;;;;5063256;28;20049;-81
2023/08/10 00:55:51;;;;;;;5.45;1.88;;;14.00;99.90;;;;;;5062334;28;20056;-82
2023/08/10 00:58:20;;;;;;;5.00;1.83;;;14.50;99.90;;;;;;5062236;28;20048;-82
2023/08/10 01:00:47;;;;;;;4.47;1.58;;;14.40;99.90;;;;;;5054715;28;20183;-82
2023/08/10 01:03:13;;;;;;;4.95;1.60;;;14.00;99.90;;;;;;5062248;28;20393;-82
2023/08/10 01:05:52;;;;;;;5.72;2.10;;;13.90;99.90;;;;;;5065864;28;20046;-82
2023/08/10 01:08:39;;;;;;;5.68;1.98;;;13.90;99.90;;;;;;5066066;28;20044;-81
2023/08/10 01:11:15;;;;;;;2.60;1.77;;;13.90;99.90;;;;;;5056710;28;20477;-82
2023/08/10 01:13:52;;;;;;;6.30;1.88;;;13.90;99.90;;;;;;5065469;28;20409;-82
2023/08/10 01:16:20;;;;;;;4.85;1.83;;;13.90;99.90;;;;;;5065771;28;20492;-81
2023/08/10 01:18:49;;;;;;;6.63;2.10;;;14.00;99.90;;;;;;5053477;28;20132;-82
2023/08/10 01:21:51;;;;;;;10.63;2.35;;;14.00;99.90;;;;;;5062372;28;20448;-82
2023/08/10 01:24:25;;;;;;;4.50;2.15;;;13.90;99.90;;;;;;4999447;28;20054;-82
2023/08/10 01:26:53;;;;;;;5.45;1.90;;;13.90;99.90;;;;;;5036532;28;20048;-82
2023/08/10 01:29:20;;;;;;;5.22;1.48;;;12.90;99.90;;;;;;5065452;28;20044;-82
2023/08/10 01:31:46;;;;;;;5.40;1.60;;;14.00;99.90;;;;;;5053296;28;20542;-82
2023/08/10 01:34:12;;;;;;;2.30;1.90;;;13.90;99.90;;;;;;5062105;28;20076;-82
2023/08/10 01:36:37;;;;;;;8.75;2.22;;;14.50;99.90;;;;;;5064867;28;20112;-81
2023/08/10 01:39:03;;;;;;;7.80;2.10;;;13.90;99.90;;;;;;5063573;28;20475;-82
2023/08/10 01:41:29;;;;;;;4.20;2.03;;;13.90;99.90;;;;;;5064279;28;20051;-82
2023/08/10 01:43:54;;;;;;;6.25;1.70;;;13.90;99.90;;;;;;5058391;28;20086;-82
2023/08/10 01:46:23;;;;;;;7.60;2.38;;;13.90;99.90;;;;;;5064884;28;20454;-82
2023/08/10 01:48:52;;;;;;;4.40;1.83;;;13.80;99.90;;;;;;5053687;28;20111;-82
2023/08/10 01:51:22;;;;;;;2.95;1.70;;;15.10;99.90;;;;;;5062145;28;20145;-82
2023/08/10 01:53:49;;;;;;;2.85;1.73;;;13.80;99.90;;;;;;5053170;28;20036;-82
2023/08/10 01:56:14;;;;;;;5.07;2.70;;;13.70;99.90;;;;;;5063149;28;20040;-82
2023/08/10 01:58:40;;;;;;;7.13;2.17;;;13.80;99.90;;;;;;5071038;28;20049;-82
2023/08/10 02:01:06;;;;;;;4.72;1.88;;;14.60;99.90;;;;;;5074018;28;20046;-82
2023/08/10 02:03:31;;;;;;;4.32;1.90;;;14.40;99.90;;;;;;5066076;28;20524;-82
2023/08/10 02:05:57;;;;;;;2.13;1.60;;;13.70;99.90;;;;;;5062390;28;20044;-82
2023/08/10 02:08:23;;;;;;;4.47;2.22;;;13.70;99.90;;;;;;5060918;28;20037;-82
2023/08/10 02:10:49;;;;;;;6.78;2.70;;;13.70;99.90;;;;;;5057250;28;20036;-82
2023/08/10 02:13:14;;;;;;;6.45;2.20;;;13.50;99.90;;;;;;5064811;28;20421;-82
2023/08/10 02:15:42;;;;;;;5.80;2.10;;;13.60;99.90;;;;;;5061799;28;20041;-82
2023/08/10 02:18:10;;;;;;;3.58;2.28;;;13.60;99.90;;;;;;5061248;28;20108;-82
2023/08/10 02:20:36;;;;;;;7.18;1.88;;;14.30;99.90;;;;;;5060348;28;20057;-82
2023/08/10 02:23:02;;;;;;;7.95;1.67;;;13.50;99.90;;;;;;5064530;28;20047;-82
2023/08/10 02:25:27;;;;;;;5.43;2.25;;;13.60;99.90;;;;;;5064261;28;20571;-82
2023/08/10 02:27:53;;;;;;;6.78;2.10;;;13.50;99.90;;;;;;5060359;28;20115;-82
2023/08/10 02:30:19;;;;;;;6.88;2.08;;;13.50;99.90;;;;;;5060832;28;20120;-81
2023/08/10 02:32:45;;;;;;;7.00;1.85;;;14.70;99.90;;;;;;5063546;28;20041;-82
2023/08/10 02:35:11;;;;;;;5.70;2.22;;;13.50;99.90;;;;;;5063896;28;20528;-81
2023/08/10 02:37:37;;;;;;;6.88;2.08;;;13.50;99.90;;;;;;5063176;28;20048;-82
2023/08/10 02:40:21;;;;;;;5.00;1.85;;;13.50;99.90;;;;;;5061043;28;20037;-82
2023/08/10 02:42:47;;;;;;;5.40;2.05;;;13.40;99.90;;;;;;5062454;28;20048;-82
2023/08/10 02:45:13;;;;;;;3.40;1.65;;;14.10;99.90;;;;;;5064212;28;20044;-81
2023/08/10 02:47:39;;;;;;;6.55;1.95;;;13.60;99.90;;;;;;5062506;28;20049;-82
2023/08/10 02:50:05;;;;;;;5.53;2.20;;;13.30;99.90;;;;;;5059878;28;20384;-82
2023/08/10 02:52:31;;;;;;;6.35;2.20;;;13.30;99.90;;;;;;5061206;28;20044;-81
2023/08/10 02:54:57;;;;;;;3.10;2.05;;;13.30;99.90;;;;;;5064309;28;20093;-82
2023/08/10 02:57:22;;;;;;;6.50;1.88;;;13.40;99.90;;;;;;5055803;28;20513;-82
2023/08/10 02:59:48;;;;;;;6.60;1.77;;;13.30;99.90;;;;;;5063068;28;20427;-82
2023/08/10 03:02:17;;;;;;;4.32;1.85;;;13.90;99.90;;;;;;5063814;28;20040;-81
2023/08/10 03:04:43;;;;;;;6.75;2.42;;;13.40;99.90;;;;;;5061277;28;20135;-82
2023/08/10 03:07:09;;;;;;;3.63;1.70;;;13.40;99.90;;;;;;5060343;28;20041;-82
2023/08/10 03:09:34;;;;;;;2.50;1.63;;;13.40;99.90;;;;;;5060653;28;20056;-82
2023/08/10 03:12:00;;;;;;;4.32;2.00;;;13.40;99.90;;;;;;5061701;28;20045;-82
2023/08/10 03:14:26;;;;;;;8.13;2.05;;;14.50;99.90;;;;;;5063422;28;20408;-82
2023/08/10 03:16:52;;;;;;;4.30;1.92;;;13.40;99.90;;;;;;5059778;28;20045;-82
2023/08/10 03:19:17;;;;;;;4.32;1.98;;;14.60;99.90;;;;;;5058497;28;20408;-81
2023/08/10 03:21:43;;;;;;;3.58;1.75;;;13.40;99.90;;;;;;5062327;28;20049;-82
2023/08/10 03:24:09;;;;;;;6.55;2.10;;;13.40;99.90;;;;;;5063031;28;20040;-82
2023/08/10 03:26:34;;;;;;;4.57;1.73;;;13.40;99.90;;;;;;5063496;28;20041;-82
2023/08/10 03:29:01;;;;;;;3.38;2.10;;;13.40;99.90;;;;;;5058528;28;20037;-82
2023/08/10 03:31:26;;;;;;;7.28;2.22;;;13.40;99.90;;;;;;5059530;28;20119;-82
2023/08/10 03:33:52;;;;;;;5.80;1.50;;;13.40;99.90;;;;;;5062621;28;20170;-82
2023/08/10 03:36:19;;;;;;;4.22;1.55;;;13.40;99.90;;;;;;5063478;28;20048;-82
2023/08/10 03:38:45;;;;;;;5.57;1.63;;;13.40;99.90;;;;;;5060944;28;20047;-81
2023/08/10 03:41:10;;;;;;;4.72;1.63;;;13.40;99.90;;;;;;5060091;28;20218;-81
2023/08/10 03:43:37;;;;;;;5.13;1.75;;;13.40;99.90;;;;;;5060444;28;20063;-82
2023/08/10 03:46:05;;;;;;;5.38;1.85;;;13.50;99.90;;;;;;5064893;28;20052;-82
2023/08/10 03:48:30;;;;;;;3.47;1.88;;;13.50;99.90;;;;;;5071372;28;20040;-82
2023/08/10 03:50:56;;;;;;;3.72;1.65;;;14.40;99.90;;;;;;5066753;28;20536;-82
2023/08/10 03:53:22;;;;;;;13.48;2.38;;;13.40;99.90;;;;;;5059072;28;20037;-82
2023/08/10 03:55:47;;;;;;;7.32;1.60;;;13.40;99.90;;;;;;5061309;28;20036;-82
2023/08/10 03:58:13;;;;;;;2.28;1.63;;;14.90;99.90;;;;;;5063450;28;20036;-82
2023/08/10 04:00:44;;;;;;;2.42;1.48;;;13.40;99.90;;;;;;5061726;28;20072;-82
2023/08/10 04:03:11;;;;;;;3.78;1.35;;;13.50;99.90;;;;;;5059432;28;20538;-82
2023/08/10 04:05:37;;;;;;;5.50;1.60;;;14.40;99.90;;;;;;5069267;28;20123;-82
2023/08/10 04:08:03;;;;;;;7.93;1.70;;;13.50;99.90;;;;;;5063972;28;20085;-82
2023/08/10 04:10:29;;;;;;;4.78;1.40;;;13.50;99.90;;;;;;5060512;28;20057;-82
2023/08/10 04:12:56;;;;;;;5.50;1.75;;;13.50;99.90;;;;;;5064238;28;20044;-82
2023/08/10 04:15:21;;;;;;;3.17;1.63;;;13.50;99.90;;;;;;5063877;28;20480;-82
2023/08/10 04:17:47;;;;;;;4.47;1.98;;;13.50;99.90;;;;;;5061303;28;20048;-82
2023/08/10 04:20:14;;;;;;;5.85;2.25;;;14.40;99.90;;;;;;5058938;28;20045;-80
2023/08/10 04:22:40;;;;;;;8.77;2.10;;;13.50;99.90;;;;;;5060841;28;20162;-82
2023/08/10 04:25:07;;;;;;;2.05;1.80;;;13.50;99.90;;;;;;5063922;28;20496;-82
2023/08/10 04:27:33;;;;;;;5.78;1.80;;;13.50;99.90;;;;;;5064188;28;20048;-82
2023/08/10 04:29:59;;;;;;;5.85;1.95;;;13.50;99.90;;;;;;5060515;28;20041;-82
2023/08/10 04:32:25;;;;;;;3.30;1.60;;;13.50;99.90;;;;;;5059380;28;20103;-82
2023/08/10 04:34:52;;;;;;;3.72;1.40;;;13.50;99.90;;;;;;5060284;28;20045;-82
2023/08/10 04:37:17;;;;;;;4.22;1.65;;;13.50;99.90;;;;;;5062892;28;20045;-82
2023/08/10 04:39:43;;;;;;;3.67;2.00;;;13.50;99.90;;;;;;5061909;28;20060;-82
2023/08/10 04:42:10;;;;;;;4.82;1.60;;;13.60;99.90;;;;;;5057434;28;20079;-80
2023/08/10 04:44:35;;;;;;;9.30;2.05;;;13.60;99.90;;;;;;5059374;28;20049;-82
2023/08/10 04:47:01;;;;;;;5.25;1.70;;;13.60;99.90;;;;;;5062856;28;20534;-80
2023/08/10 04:49:28;;;;;;;7.57;1.90;;;14.90;99.90;;;;;;5063039;28;20037;-80
2023/08/10 04:51:54;;;;;;;5.22;2.08;;;13.60;99.90;;;;;;5061401;28;20044;-81
2023/08/10 04:54:20;;;;;;;5.45;2.20;;;14.30;99.90;;;;;;5059696;28;20124;-82
2023/08/10 04:56:46;;;;;;;6.70;2.03;;;13.60;99.90;;;;;;5060732;28;20147;-81
2023/08/10 04:59:12;;;;;;;6.07;2.65;;;13.60;99.90;;;;;;5063251;28;20139;-81
2023/08/10 05:01:38;;;;;;;3.72;1.80;;;13.60;99.90;;;;;;5064933;28;20053;-82
2023/08/10 05:04:05;;;;;;;7.25;1.90;;;13.60;99.90;;;;;;5062033;28;20057;-81
2023/08/10 05:06:31;;;;;;;4.38;2.05;;;13.60;99.90;;;;;;5066191;28;20066;-81
2023/08/10 05:08:57;;;;;;;4.70;1.83;;;13.70;99.90;;;;;;5065104;28;20493;-81
2023/08/10 05:11:23;;;;;;;2.92;1.90;;;13.70;99.90;;;;;;5063841;28;20041;-81
2023/08/10 05:13:49;;;;;;;3.70;1.83;;;13.70;99.90;;;;;;5065243;28;20056;-81
2023/08/10 05:16:18;;;;;;;5.30;1.80;;;13.70;99.90;;;;;;5066563;28;20037;-81
2023/08/10 05:18:43;;;;;;;4.68;1.52;;;14.60;99.90;;;;;;5067220;28;20069;-81
2023/08/10 05:21:09;;;;;;;3.42;1.75;;;14.70;99.90;;;;;;5063106;28;20128;-81
2023/08/10 05:23:37;;;;;;;3.47;2.10;;;13.70;99.90;;;;;;5063518;28;20472;-82
2023/08/10 05:26:10;;;;;;;6.57;1.60;;;13.80;99.90;;;;;;5069487;28;20049;-82
2023/08/10 05:28:36;;;;;;;4.63;2.33;;;13.80;99.90;;;;;;5069125;28;20050;-81
2023/08/10 05:31:02;;;;;;;6.22;2.08;;;13.80;99.90;;;;;;5065137;28;20064;-81
2023/08/10 05:33:28;;;;;;;9.02;2.63;;;13.80;99.90;;;;;;5065112;28;20047;-82
2023/08/10 05:35:53;;;;;;;2.25;1.75;;;13.80;99.90;;;;;;5075314;28;20036;-82
2023/08/10 05:38:19;;;;;;;3.60;1.58;;;13.90;99.90;;;;;;5068812;28;20496;-81
2023/08/10 05:40:44;;;;;;;7.15;1.77;;;13.90;99.90;;;;;;5063404;28;20040;-81
2023/08/10 05:43:10;;;;;;;4.78;2.22;;;13.90;99.90;;;;;;5066244;28;20041;-81
2023/08/10 05:45:36;;;;;;;4.45;1.45;;;14.00;99.90;;;;;;5066905;28;20054;-81
2023/08/10 05:48:09;;;;;;;5.50;1.77;;;13.90;99.90;;;;;;5063548;28;20476;-81
2023/08/10 05:50:35;;;;;;;4.20;1.92;;;13.90;99.90;;;;;;5061955;28;20086;-81
2023/08/10 05:53:01;;;;;;;3.65;1.65;;;14.00;99.90;;;;;;5062794;28;20124;-81
2023/08/10 05:55:26;;;;;;;3.55;1.88;;;13.90;99.90;;;;;;5066805;28;20037;-82
2023/08/10 05:57:52;;;;;;;4.47;2.20;;;14.30;99.90;;;;;;5065752;28;20453;-82
2023/08/10 06:00:18;;;;;;;5.70;1.70;;;14.00;99.90;;;;;;5061997;28;20550;-82
2023/08/10 06:02:45;;;;;;;4.95;2.50;;;13.90;99.90;;;;;;5064169;28;20045;-82
2023/08/10 06:05:12;;;;;;;2.67;1.83;;;14.00;99.90;;;;;;5066277;28;20496;-83
2023/08/10 06:07:38;;;;;;;7.45;2.42;;;14.00;99.90;;;;;;5065998;28;20028;-82
2023/08/10 06:10:05;;;;;;;5.78;1.92;;;14.00;99.90;;;;;;5063066;28;20489;-82
2023/08/10 06:12:31;;;;;;;5.78;2.17;;;14.10;99.90;;;;;;5064186;28;20037;-82
2023/08/10 06:14:58;;;;;;;7.38;2.17;;;14.10;99.90;;;;;;5063795;28;20036;-81
2023/08/10 06:17:24;;;;;;;7.82;2.33;;;14.10;99.90;;;;;;5065168;28;20040;-81
2023/08/10 06:19:52;;;;;;;7.18;1.70;;;14.80;99.90;;;;;;5064282;28;20041;-81
2023/08/10 06:22:17;;;;;;;8.13;2.33;;;14.20;99.90;;;;;;5035183;28;20061;-82
2023/08/10 06:24:43;;;;;;;3.35;1.77;;;14.60;99.90;;;;;;5059460;28;20052;-83
2023/08/10 06:27:09;;;;;;;5.05;1.80;;;14.40;99.90;;;;;;5066505;28;20044;-81
2023/08/10 06:29:35;;;;;;;8.27;2.03;;;14.40;99.90;;;;;;5068889;28;20074;-82
2023/08/10 06:32:05;;;;;;;7.45;1.65;;;14.50;99.90;;;;;;5065458;28;20117;-82
2023/08/10 06:34:30;;;;;;;4.18;1.80;;;14.50;99.90;;;;;;5061728;28;20504;-82
2023/08/10 06:36:57;;;;;;;7.82;2.15;;;14.50;99.90;;;;;;5062377;28;20112;-82
2023/08/10 06:39:23;;;;;;;5.90;1.92;;;14.50;99.90;;;;;;5064621;28;20037;-82
2023/08/10 06:41:49;;;;;;;6.95;1.75;;;15.30;99.90;;;;;;5063765;28;20481;-82
2023/08/10 06:44:14;;;;;;;4.63;2.22;;;14.70;99.90;;;;;;5062389;28;20040;-82
2023/08/10 06:46:40;;;;;;;8.52;1.92;;;14.70;99.90;;;;;;5062474;28;20043;-81
2023/08/10 06:49:06;;;;;;;5.28;1.60;;;14.80;99.90;;;;;;5060817;28;20040;-82
2023/08/10 06:51:32;;;;;;;9.18;2.03;;;14.80;99.90;;;;;;5061799;28;20049;-82
2023/08/10 06:53:58;;;;;;;2.95;1.30;;;14.90;99.90;;;;;;5061510;28;20412;-82
2023/08/10 06:56:23;;;;;;;8.48;1.45;;;14.90;99.90;;;;;;5060030;28;20048;-82
2023/08/10 06:58:49;;;;;;;9.75;1.25;;;15.00;99.90;;;;;;5060522;28;20064;-82
2023/08/10 07:01:16;;;;;;;14.27;9.10;;;15.10;99.90;;;;;;5063714;28;20365;-82
2023/08/10 07:03:42;;;;;;;4.40;1.80;;;14.90;99.90;;;;;;5061291;28;20070;-80
2023/08/10 07:06:09;;;;;;;4.95;1.17;;;15.10;99.90;;;;;;5064577;28;20040;-81
2023/08/10 07:08:38;;;;;;;7.43;0.98;;;15.20;99.90;;;;;;5065524;28;20052;-82
2023/08/10 07:11:05;;;;;;;7.85;1.42;;;15.20;99.90;;;;;;5066587;28;20044;-81
2023/08/10 07:13:32;;;;;;;9.27;1.63;;;15.20;99.90;;;;;;5060349;28;20032;-81
2023/08/10 07:15:58;;;;;;;5.72;1.48;;;15.30;99.90;;;;;;5064560;28;20123;-81
2023/08/10 07:18:23;;;;;;;6.88;1.38;;;15.40;99.90;;;;;;5060695;28;20123;-81
2023/08/10 07:20:49;;;;;;;7.85;0.77;;;15.40;99.90;;;;;;5067740;28;20053;-81
2023/08/10 07:23:17;;;;;;;5.53;1.38;;;15.60;99.90;;;;;;5072222;28;20055;-81
2023/08/10 07:25:45;;;;;;;6.22;0.80;;;15.60;99.90;;;;;;5066840;28;20040;-82
2023/08/10 07:28:11;;;;;;;4.00;0.60;;;15.70;99.90;;;;;;5061590;28;20052;-81
2023/08/10 07:30:37;;;;;;;4.75;1.17;;;15.70;99.90;;;;;;5059470;28;20041;-82
2023/08/10 07:33:03;;;;;;;5.03;1.02;;;15.70;99.90;;;;;;5061658;28;20041;-81
2023/08/10 07:35:28;;;;;;;9.10;1.63;;;15.80;99.90;;;;;;5064049;28;20107;-81
2023/08/10 07:37:54;;;;;;;3.47;1.08;;;15.90;99.90;;;;;;5061552;28;20080;-81
2023/08/10 07:40:20;;;;;;;5.35;0.73;;;15.90;99.90;;;;;;5060882;28;20059;-81
2023/08/10 07:42:46;;;;;;;6.20;0.93;;;16.00;99.90;;;;;;5058703;28;20053;-81
2023/08/10 07:45:11;;;;;;;6.45;0.98;;;16.20;99.90;;;;;;5061172;28;20037;-81
2023/08/10 07:47:37;;;;;;;4.30;0.73;;;16.00;99.90;;;;;;5064114;28;20043;-82
2023/08/10 07:50:04;;;;;;;6.38;0.82;;;16.60;99.90;;;;;;5055444;28;20126;-81
2023/08/10 07:52:29;;;;;;;6.95;0.88;;;16.00;99.90;;;;;;5062940;28;20032;-82
2023/08/10 07:54:55;;;;;;;3.75;0.82;;;16.00;99.90;;;;;;5064889;28;20134;-81
2023/08/10 07:57:21;;;;;;;6.95;0.88;;;16.10;99.90;;;;;;5061001;28;20076;-82
2023/08/10 07:59:46;;;;;;;2.80;0.32;;;16.00;99.90;;;;;;5062298;28;20052;-82
2023/08/10 08:02:12;;;;;;;2.67;0.60;;;16.10;99.90;;;;;;5061791;28;20040;-81
2023/08/10 08:04:37;;;;;;;8.88;1.08;;;16.10;99.90;;;;;;5059300;28;20049;-82
2023/08/10 08:07:03;;;;;;;5.10;0.52;;;16.80;99.90;;;;;;5058813;28;20040;-81
2023/08/10 08:09:29;;;;;;;4.75;0.52;;;16.10;99.90;;;;;;5051041;28;20037;-81
2023/08/10 08:11:54;;;;;;;6.97;0.75;;;16.10;99.90;;;;;;5059695;28;20106;-82
2023/08/10 08:14:20;;;;;;;6.47;0.80;;;16.10;99.90;;;;;;5060850;28;20120;-81
2023/08/10 08:16:45;;;;;;;3.25;0.50;;;16.10;99.90;;;;;;5061724;28;20392;-82
2023/08/10 08:19:11;;;;;;;3.40;0.88;;;16.10;99.90;;;;;;5061021;28;20048;-81
2023/08/10 08:21:37;;;;;;;7.95;0.60;;;16.10;99.90;;;;;;5059137;28;20053;-81
2023/08/10 08:24:03;;;;;;;5.30;0.68;;;16.20;99.90;;;;;;5059558;28;20045;-81
2023/08/10 08:26:30;;;;;;;3.70;0.82;;;16.20;99.90;;;;;;5062074;28;20049;-81
2023/08/10 08:28:57;;;;;;;4.22;0.50;;;16.20;99.90;;;;;;5062840;28;20102;-82
2023/08/10 08:31:23;;;;;;;2.28;0.55;;;16.30;99.90;;;;;;5060367;28;20584;-82
2023/08/10 08:33:49;;;;;;;3.90;0.50;;;16.30;99.90;;;;;;5058643;28;20041;-81
2023/08/10 08:36:14;;;;;;;8.52;0.93;;;16.30;99.90;;;;;;5060234;28;20067;-81
2023/08/10 08:38:41;;;;;;;2.88;0.55;;;16.40;99.90;;;;;;5062697;28;20041;-81
2023/08/10 08:41:09;;;;;;;5.18;0.68;;;16.40;99.90;;;;;;5064526;28;20086;-82
2023/08/10 08:43:36;;;;;;;3.67;0.75;;;16.40;99.90;;;;;;5055321;28;20515;-82
2023/08/10 08:46:03;;;;;;;7.28;0.50;;;16.50;99.90;;;;;;5063225;28;20122;-82
2023/08/10 08:48:29;;;;;;;4.30;0.60;;;16.50;99.90;;;;;;5064905;28;20036;-82
2023/08/10 08:50:56;;;;;;;3.03;0.60;;;16.50;99.90;;;;;;5048569;28;20344;-82
2023/08/10 08:53:22;;;;;;;5.18;0.52;;;16.50;99.90;;;;;;5065138;28;20070;-81
2023/08/10 08:55:48;;;;;;;11.07;1.08;;;16.50;99.90;;;;;;5067793;28;20446;-82
2023/08/10 08:58:17;;;;;;;3.67;0.90;;;16.50;99.90;;;;;;5065452;28;20040;-82
2023/08/10 09:00:52;;;;;;;4.78;0.63;;;16.60;99.90;;;;;;5062992;28;20041;-81
2023/08/10 09:03:27;;;;;;;8.10;0.90;;;16.60;99.90;;;;;;5062120;28;20140;-82
2023/08/10 09:05:53;;;;;;;2.72;0.50;;;16.70;99.90;;;;;;5067121;28;20113;-82
2023/08/10 09:08:20;;;;;;;3.63;0.82;;;16.60;99.90;;;;;;5075698;28;20033;-82
2023/08/10 09:10:47;;;;;;;4.63;0.70;;;16.60;99.90;;;;;;5070132;28;20080;-82
2023/08/10 09:13:22;;;;;;;6.65;0.98;;;16.60;99.90;;;;;;5062921;28;20124;-81
2023/08/10 09:16:10;;;;;;;4.00;1.45;;;16.60;99.90;;;;;;5065386;28;20135;-81
2023/08/10 09:18:38;;;;;;;4.93;0.60;;;16.60;99.90;;;;;;5062599;28;20117;-82
2023/08/10 09:21:13;;;;;;;2.85;0.55;;;16.60;99.90;;;;;;5062371;28;20148;-82
2023/08/10 09:23:39;;;;;;;3.28;0.88;;;16.70;99.90;;;;;;5052135;28;20055;-82
2023/08/10 09:26:12;;;;;;;2.33;0.68;;;16.70;99.90;;;;;;5062455;28;20045;-82
2023/08/10 09:28:38;;;;;;;5.00;0.90;;;16.70;99.90;;;;;;5065175;28;20043;-82
2023/08/10 09:31:07;;;;;;;1.17;0.43;;;16.70;99.90;;;;;;5063627;28;20124;-82
2023/08/10 09:33:33;;;;;;;2.95;0.60;;;16.80;99.90;;;;;;5062984;28;20055;-82
2023/08/10 09:36:00;;;;;;;1.83;0.47;;;16.80;99.90;;;;;;5062476;28;20037;-82
2023/08/10 09:38:26;;;;;;;2.67;0.50;;;16.80;99.90;;;;;;5062746;28;20049;-81
2023/08/10 09:41:15;;;;;;;6.78;1.02;;;16.80;99.90;;;;;;5068928;28;20068;-81
2023/08/10 09:43:44;;;;;;;2.33;0.52;;;16.80;99.90;;;;;;5063622;28;20419;-81
2023/08/10 09:46:12;;;;;;;3.28;0.63;;;16.80;99.90;;;;;;5065783;28;20480;-81
2023/08/10 09:48:40;;;;;;;7.13;0.93;;;16.90;99.90;;;;;;5063022;28;20071;-81
2023/08/10 09:51:08;;;;;;;6.65;0.90;;;16.80;99.90;;;;;;5061772;28;20097;-81
2023/08/10 09:53:34;;;;;;;2.72;0.60;;;17.00;99.90;;;;;;5064747;28;20047;-82
2023/08/10 09:56:01;;;;;;;4.22;0.82;;;16.90;99.90;;;;;;5065321;28;20036;-82
2023/08/10 09:58:27;;;;;;;3.90;0.57;;;16.90;99.90;;;;;;5056117;28;20485;-81
2023/08/10 10:00:53;;;;;;;3.05;0.75;;;17.30;99.90;;;;;;5064862;28;20443;-81
2023/08/10 10:03:29;;;;;;;4.13;0.68;;;16.80;99.90;;;;;;5064933;28;20041;-82
2023/08/10 10:05:56;;;;;;;2.60;1.08;;;16.90;99.90;;;;;;5054378;28;20036;-82
2023/08/10 10:08:23;;;;;;;5.55;0.93;;;16.80;99.90;;;;;;5061366;28;20033;-82
2023/08/10 10:10:48;;;;;;;4.25;1.55;;;16.90;99.90;;;;;;5063710;28;20032;-82
2023/08/10 10:13:16;;;;;;;2.15;0.50;;;16.90;99.90;;;;;;5064037;28;20043;-82
2023/08/10 10:15:43;;;;;;;5.68;1.08;;;16.90;99.90;;;;;;5062036;28;20049;-81
2023/08/10 10:18:10;;;;;;;5.07;1.23;;;16.80;99.90;;;;;;5061196;28;20069;-82
2023/08/10 10:20:39;;;;;;;5.32;1.17;;;16.90;99.90;;;;;;5062353;28;20068;-81
2023/08/10 10:23:16;;;;;;;8.10;1.02;;;16.90;99.90;;;;;;5064809;28;20044;-82
2023/08/10 10:26:00;;;;;;;3.47;0.80;;;16.90;99.90;;;;;;5062127;28;20058;-82
2023/08/10 10:28:28;;;;;;;3.08;0.80;;;16.90;99.90;;;;;;5061773;28;20352;-82
2023/08/10 10:31:10;;;;;;;8.43;1.10;;;17.50;99.90;;;;;;5065535;28;20052;-81
2023/08/10 10:33:38;;;;;;;4.45;1.05;;;16.90;99.90;;;;;;5062362;28;20040;-81
2023/08/10 10:36:08;;;;;;;7.25;0.75;;;17.00;99.90;;;;;;5061076;28;20425;-81
2023/08/10 10:38:34;;;;;;;5.93;0.82;;;17.00;99.90;;;;;;5061908;28;20463;-81
2023/08/10 10:41:16;;;;;;;6.55;0.98;;;17.00;99.90;;;;;;5064021;28;20072;-81
2023/08/10 10:43:46;;;;;;;5.03;1.00;;;17.00;99.90;;;;;;5061679;28;20706;-81
2023/08/10 10:46:33;;;;;;;4.22;0.73;;;17.00;99.90;;;;;;5061034;28;20110;-81
2023/08/10 10:49:00;;;;;;;3.20;0.80;;;17.00;99.90;;;;;;5051795;28;20040;-81
2023/08/10 10:51:28;;;;;;;6.68;1.30;;;17.20;99.90;;;;;;5060121;28;20400;-81
2023/08/10 10:53:54;;;;;;;7.53;1.00;;;17.10;99.90;;;;;;5068434;28;20036;-81
2023/08/10 10:56:20;;;;;;;5.65;1.30;;;17.10;99.90;;;;;;5073284;28;20067;-81
2023/08/10 10:58:47;;;;;;;5.90;1.35;;;17.30;99.90;;;;;;5064954;28;20051;-81
2023/08/10 11:01:19;;;;;;;3.25;0.98;;;17.20;99.90;;;;;;5060094;28;20036;-81
2023/08/10 11:03:53;;;;;;;4.50;1.35;;;17.60;99.90;;;;;;5062482;28;20041;-81
2023/08/10 11:06:20;;;;;;;5.35;1.60;;;17.20;99.90;;;;;;5064015;28;20048;-81
2023/08/10 11:08:54;;;;;;;3.60;1.17;;;16.60;99.90;;;;;;5060697;28;20052;-81
2023/08/10 11:11:23;;;;;;;4.68;1.48;;;17.10;99.90;;;;;;5060379;28;20370;-81
2023/08/10 11:13:52;;;;;;;4.13;1.23;;;17.20;99.90;;;;;;5062700;28;20480;-81
2023/08/10 11:16:18;;;;;;;5.55;1.90;;;17.20;99.90;;;;;;5062435;28;20048;-81
2023/08/10 11:18:45;;;;;;;3.50;1.50;;;17.20;99.90;;;;;;5055333;28;20041;-81
2023/08/10 11:21:12;;;;;;;2.50;1.13;;;17.30;99.90;;;;;;5063652;28;20432;-81
2023/08/10 11:23:41;;;;;;;5.63;1.40;;;17.40;99.90;;;;;;5062374;28;20063;-81
2023/08/10 11:26:07;;;;;;;2.63;0.77;;;17.30;99.90;;;;;;5060193;28;20131;-81
2023/08/10 11:28:33;;;;;;;5.00;1.30;;;17.30;99.90;;;;;;5059998;28;20096;-81
2023/08/10 11:31:03;;;;;;;9.27;1.50;;;17.30;99.90;;;;;;5063283;28;20044;-81
2023/08/10 11:33:29;;;;;;;5.07;1.70;;;17.40;99.90;;;;;;5045727;28;20058;-81
2023/08/10 11:35:56;;;;;;;3.72;0.85;;;17.40;99.90;;;;;;5060523;28;20045;-81
2023/08/10 11:38:22;;;;;;;2.33;1.13;;;17.40;99.90;;;;;;5059007;28;20044;-81
2023/08/10 11:40:48;;;;;;;5.40;0.98;;;17.40;99.90;;;;;;5061840;28;20396;-81
2023/08/10 11:43:15;;;;;;;4.00;1.08;;;17.40;99.90;;;;;;5062622;28;20036;-81
2023/08/10 11:45:41;;;;;;;3.75;1.27;;;17.50;99.90;;;;;;5062389;28;20051;-81
2023/08/10 11:48:09;;;;;;;3.70;1.70;;;17.50;99.90;;;;;;5059568;28;20041;-81
2023/08/10 11:50:38;;;;;;;6.65;1.55;;;17.50;99.90;;;;;;5058235;28;20049;-81
2023/08/10 11:53:15;;;;;;;2.38;0.93;;;17.50;99.90;;;;;;5052179;28;20033;-81
2023/08/10 11:55:46;;;;;;;4.15;1.73;;;17.50;99.90;;;;;;5060359;28;20069;-81
2023/08/10 11:58:13;;;;;;;6.45;1.65;;;17.60;99.90;;;;;;5062405;28;20557;-81
2023/08/10 12:00:41;;;;;;;6.55;2.28;;;17.60;99.90;;;;;;5062944;28;20040;-81
2023/08/10 12:03:11;;;;;;;8.65;1.55;;;17.60;99.90;;;;;;5059892;28;20558;-81
2023/08/10 12:05:43;;;;;;;3.15;1.40;;;17.70;99.90;;;;;;5058855;28;20080;-81
2023/08/10 12:08:11;;;;;;;4.20;0.93;;;17.70;99.90;;;;;;5062708;28;20041;-81
2023/08/10 12:10:50;;;;;;;4.30;1.17;;;17.70;99.90;;;;;;5062991;28;20070;-81
2023/08/10 12:13:18;;;;;;;5.20;1.27;;;17.80;99.90;;;;;;5052445;28;20045;-81
2023/08/10 12:15:49;;;;;;;8.63;1.45;;;17.70;99.90;;;;;;5062020;28;20041;-80
2023/08/10 12:18:17;;;;;;;5.20;1.50;;;17.80;99.90;;;;;;5066754;28;20527;-81
2023/08/10 12:20:47;;;;;;;4.95;1.63;;;17.70;99.90;;;;;;5066339;28;20127;-81
2023/08/10 12:23:13;;;;;;;5.68;1.52;;;17.80;99.90;;;;;;5063721;28;20471;-81
2023/08/10 12:25:40;;;;;;;5.78;1.98;;;17.80;99.90;;;;;;5063159;28;20095;-81
2023/08/10 12:28:07;;;;;;;6.72;1.27;;;17.80;99.90;;;;;;5055371;28;20072;-81
2023/08/10 12:30:34;;;;;;;5.07;1.58;;;17.80;99.90;;;;;;5063819;28;20264;-81
2023/08/10 12:33:00;;;;;;;4.03;2.05;;;17.80;99.90;;;;;;5065196;28;20068;-81
2023/08/10 12:35:26;;;;;;;5.97;2.60;;;17.90;99.90;;;;;;5066911;28;20041;-81
2023/08/10 12:37:52;;;;;;;5.40;2.05;;;17.80;99.90;;;;;;5065899;28;20042;-81
2023/08/10 12:40:18;;;;;;;2.65;1.45;;;17.80;99.90;;;;;;5067076;28;20101;-81
2023/08/10 12:42:44;;;;;;;8.48;2.15;;;17.80;99.90;;;;;;5080698;28;20098;-81
2023/08/10 12:45:11;;;;;;;12.07;2.10;;;17.80;99.90;;;;;;5069384;28;20116;-82
2023/08/10 12:47:41;;;;;;;5.95;2.30;;;17.90;99.90;;;;;;5064594;28;20086;-81